sensor_id;sensor_type;location;lat;lon;timestamp;P1;durP1;ratioP1;P2;durP2;ratioP2
23714;SDS011;12036;50.858;4.472;2023-05-17T00:00:47;7.50;;;2.63;;
23714;SDS011;12036;50.858;4.472;2023-05-17T00:03:13;8.20;;;2.60;;
23714;SDS011;12036;50.858;4.472;2023-05-17T00:05:38;11.60;;;3.08;;
23714;SDS011;12036;50.858;4.472;2023-05-17T00:08:04;11.38;;;2.53;;
23714;SDS011;12036;50.858;4.472;2023-05-17T00:10:30;12.07;;;3.53;;
23714;SDS011;12036;50.858;4.472;2023-05-17T00:12:55;6.43;;;3.03;;
23714;SDS011;12036;50.858;4.472;2023-05-17T00:15:21;8.30;;;3.17;;
23714;SDS011;12036;50.858;4.472;2023-05-17T00:17:47;11.23;;;3.50;;
23714;SDS011;12036;50.858;4.472;2023-05-17T00:20:13;7.32;;;3.13;;
23714;SDS011;12036;50.858;4.472;2023-05-17T00:22:38;8.13;;;3.15;;
23714;SDS011;12036;50.858;4.472;2023-05-17T00:25:05;7.95;;;2.95;;
23714;SDS011;12036;50.858;4.472;2023-05-17T00:27:31;10.18;;;3.63;;
23714;SDS011;12036;50.858;4.472;2023-05-17T00:29:57;12.68;;;3.72;;
23714;SDS011;12036;50.858;4.472;2023-05-17T00:32:22;11.68;;;3.38;;
23714;SDS011;12036;50.858;4.472;2023-05-17T00:34:48;9.63;;;3.67;;
23714;SDS011;12036;50.858;4.472;2023-05-17T00:37:14;8.15;;;3.17;;
23714;SDS011;12036;50.858;4.472;2023-05-17T00:39:39;8.07;;;3.47;;
23714;SDS011;12036;50.858;4.472;2023-05-17T00:42:05;11.07;;;3.75;;
23714;SDS011;12036;50.858;4.472;2023-05-17T00:44:31;8.20;;;3.30;;
23714;SDS011;12036;50.858;4.472;2023-05-17T00:46:56;14.55;;;3.70;;
23714;SDS011;12036;50.858;4.472;2023-05-17T00:49:24;11.20;;;4.03;;
23714;SDS011;12036;50.858;4.472;2023-05-17T00:51:52;11.85;;;3.72;;
23714;SDS011;12036;50.858;4.472;2023-05-17T00:54:19;8.25;;;3.53;;
23714;SDS011;12036;50.858;4.472;2023-05-17T00:56:45;10.13;;;3.75;;
23714;SDS011;12036;50.858;4.472;2023-05-17T00:59:11;6.93;;;3.50;;
23714;SDS011;12036;50.858;4.472;2023-05-17T01:01:41;10.95;;;3.67;;
23714;SDS011;12036;50.858;4.472;2023-05-17T01:04:08;12.35;;;4.00;;
23714;SDS011;12036;50.858;4.472;2023-05-17T01:06:34;9.20;;;3.90;;
23714;SDS011;12036;50.858;4.472;2023-05-17T01:09:01;15.00;;;4.10;;
23714;SDS011;12036;50.858;4.472;2023-05-17T01:11:34;8.82;;;4.20;;
23714;SDS011;12036;50.858;4.472;2023-05-17T01:17:16;10.20;;;4.50;;
23714;SDS011;12036;50.858;4.472;2023-05-17T01:19:56;11.30;;;4.35;;
23714;SDS011;12036;50.858;4.472;2023-05-17T01:22:43;10.05;;;3.72;;
23714;SDS011;12036;50.858;4.472;2023-05-17T01:25:34;16.67;;;4.53;;
23714;SDS011;12036;50.858;4.472;2023-05-17T01:28:12;10.88;;;4.38;;
23714;SDS011;12036;50.858;4.472;2023-05-17T01:30:38;12.15;;;4.25;;
23714;SDS011;12036;50.858;4.472;2023-05-17T01:33:06;19.33;;;4.47;;
23714;SDS011;12036;50.858;4.472;2023-05-17T01:35:33;16.88;;;4.70;;
23714;SDS011;12036;50.858;4.472;2023-05-17T01:37:59;13.48;;;4.25;;
23714;SDS011;12036;50.858;4.472;2023-05-17T01:40:24;14.32;;;4.28;;
23714;SDS011;12036;50.858;4.472;2023-05-17T01:42:55;12.55;;;4.88;;
23714;SDS011;12036;50.858;4.472;2023-05-17T01:45:27;13.75;;;5.00;;
23714;SDS011;12036;50.858;4.472;2023-05-17T01:50:35;12.43;;;4.40;;
23714;SDS011;12036;50.858;4.472;2023-05-17T01:55:42;12.27;;;5.15;;
23714;SDS011;12036;50.858;4.472;2023-05-17T01:58:13;11.05;;;4.70;;
23714;SDS011;12036;50.858;4.472;2023-05-17T02:00:42;12.32;;;4.63;;
23714;SDS011;12036;50.858;4.472;2023-05-17T02:03:17;12.82;;;5.05;;
23714;SDS011;12036;50.858;4.472;2023-05-17T02:05:43;13.85;;;4.45;;
23714;SDS011;12036;50.858;4.472;2023-05-17T02:08:09;10.65;;;4.72;;
23714;SDS011;12036;50.858;4.472;2023-05-17T02:10:35;13.73;;;5.00;;
23714;SDS011;12036;50.858;4.472;2023-05-17T02:13:00;12.80;;;4.95;;
23714;SDS011;12036;50.858;4.472;2023-05-17T02:15:26;9.70;;;5.22;;
23714;SDS011;12036;50.858;4.472;2023-05-17T02:17:52;8.85;;;4.40;;
23714;SDS011;12036;50.858;4.472;2023-05-17T02:20:17;17.83;;;4.45;;
23714;SDS011;12036;50.858;4.472;2023-05-17T02:22:43;13.88;;;5.13;;
23714;SDS011;12036;50.858;4.472;2023-05-17T02:25:08;13.00;;;4.30;;
23714;SDS011;12036;50.858;4.472;2023-05-17T02:27:34;11.23;;;4.68;;
23714;SDS011;12036;50.858;4.472;2023-05-17T02:30:00;10.98;;;4.95;;
23714;SDS011;12036;50.858;4.472;2023-05-17T02:32:27;12.55;;;4.88;;
23714;SDS011;12036;50.858;4.472;2023-05-17T02:34:53;13.70;;;5.00;;
23714;SDS011;12036;50.858;4.472;2023-05-17T02:37:19;7.60;;;4.57;;
23714;SDS011;12036;50.858;4.472;2023-05-17T02:39:45;10.27;;;4.88;;
23714;SDS011;12036;50.858;4.472;2023-05-17T02:42:11;11.18;;;4.60;;
23714;SDS011;12036;50.858;4.472;2023-05-17T02:44:36;9.20;;;4.53;;
23714;SDS011;12036;50.858;4.472;2023-05-17T02:47:02;9.98;;;4.85;;
23714;SDS011;12036;50.858;4.472;2023-05-17T02:49:28;10.65;;;4.88;;
23714;SDS011;12036;50.858;4.472;2023-05-17T02:51:54;10.05;;;4.63;;
23714;SDS011;12036;50.858;4.472;2023-05-17T02:54:20;8.65;;;4.70;;
23714;SDS011;12036;50.858;4.472;2023-05-17T02:56:45;15.05;;;4.97;;
23714;SDS011;12036;50.858;4.472;2023-05-17T02:59:11;8.30;;;4.80;;
23714;SDS011;12036;50.858;4.472;2023-05-17T03:01:36;7.13;;;4.28;;
23714;SDS011;12036;50.858;4.472;2023-05-17T03:04:02;10.15;;;4.45;;
23714;SDS011;12036;50.858;4.472;2023-05-17T03:06:29;15.10;;;4.85;;
23714;SDS011;12036;50.858;4.472;2023-05-17T03:08:55;10.65;;;4.18;;
23714;SDS011;12036;50.858;4.472;2023-05-17T03:11:21;11.32;;;4.80;;
23714;SDS011;12036;50.858;4.472;2023-05-17T03:13:46;11.63;;;4.57;;
23714;SDS011;12036;50.858;4.472;2023-05-17T03:16:15;10.60;;;5.35;;
23714;SDS011;12036;50.858;4.472;2023-05-17T03:18:44;8.40;;;4.30;;
23714;SDS011;12036;50.858;4.472;2023-05-17T03:21:09;9.00;;;4.60;;
23714;SDS011;12036;50.858;4.472;2023-05-17T03:23:35;14.82;;;5.47;;
23714;SDS011;12036;50.858;4.472;2023-05-17T03:26:00;13.40;;;4.72;;
23714;SDS011;12036;50.858;4.472;2023-05-17T03:28:26;13.23;;;4.75;;
23714;SDS011;12036;50.858;4.472;2023-05-17T03:30:52;12.35;;;4.78;;
23714;SDS011;12036;50.858;4.472;2023-05-17T03:33:18;8.15;;;4.57;;
23714;SDS011;12036;50.858;4.472;2023-05-17T03:35:44;9.88;;;5.70;;
23714;SDS011;12036;50.858;4.472;2023-05-17T03:38:12;11.43;;;4.97;;
23714;SDS011;12036;50.858;4.472;2023-05-17T03:40:38;15.18;;;5.63;;
23714;SDS011;12036;50.858;4.472;2023-05-17T03:43:04;12.85;;;5.18;;
23714;SDS011;12036;50.858;4.472;2023-05-17T03:45:29;14.60;;;5.10;;
23714;SDS011;12036;50.858;4.472;2023-05-17T03:47:55;9.68;;;5.15;;
23714;SDS011;12036;50.858;4.472;2023-05-17T03:50:21;10.25;;;4.80;;
23714;SDS011;12036;50.858;4.472;2023-05-17T03:52:46;13.43;;;4.88;;
23714;SDS011;12036;50.858;4.472;2023-05-17T03:55:12;9.32;;;4.50;;
23714;SDS011;12036;50.858;4.472;2023-05-17T03:57:37;12.13;;;5.13;;
23714;SDS011;12036;50.858;4.472;2023-05-17T04:00:03;8.73;;;4.47;;
23714;SDS011;12036;50.858;4.472;2023-05-17T04:02:33;10.43;;;4.55;;
23714;SDS011;12036;50.858;4.472;2023-05-17T04:04:58;9.73;;;5.00;;
23714;SDS011;12036;50.858;4.472;2023-05-17T04:07:24;9.82;;;4.72;;
23714;SDS011;12036;50.858;4.472;2023-05-17T04:09:49;9.48;;;5.07;;
23714;SDS011;12036;50.858;4.472;2023-05-17T04:12:16;7.90;;;4.43;;
23714;SDS011;12036;50.858;4.472;2023-05-17T04:14:41;9.60;;;5.07;;
23714;SDS011;12036;50.858;4.472;2023-05-17T04:17:07;8.20;;;4.60;;
23714;SDS011;12036;50.858;4.472;2023-05-17T04:19:33;7.68;;;4.55;;
23714;SDS011;12036;50.858;4.472;2023-05-17T04:21:59;10.52;;;4.97;;
23714;SDS011;12036;50.858;4.472;2023-05-17T04:24:24;12.00;;;5.20;;
23714;SDS011;12036;50.858;4.472;2023-05-17T04:26:50;11.07;;;5.18;;
23714;SDS011;12036;50.858;4.472;2023-05-17T04:29:16;13.02;;;6.18;;
23714;SDS011;12036;50.858;4.472;2023-05-17T04:31:41;10.93;;;5.53;;
23714;SDS011;12036;50.858;4.472;2023-05-17T04:34:07;11.00;;;5.43;;
23714;SDS011;12036;50.858;4.472;2023-05-17T04:36:33;13.80;;;5.53;;
23714;SDS011;12036;50.858;4.472;2023-05-17T04:38:59;14.43;;;5.47;;
23714;SDS011;12036;50.858;4.472;2023-05-17T04:41:24;13.57;;;5.75;;
23714;SDS011;12036;50.858;4.472;2023-05-17T04:43:50;16.13;;;6.18;;
23714;SDS011;12036;50.858;4.472;2023-05-17T04:46:15;15.27;;;7.05;;
23714;SDS011;12036;50.858;4.472;2023-05-17T04:48:41;16.10;;;6.65;;
23714;SDS011;12036;50.858;4.472;2023-05-17T04:51:07;13.88;;;6.60;;
23714;SDS011;12036;50.858;4.472;2023-05-17T04:53:32;12.02;;;6.47;;
23714;SDS011;12036;50.858;4.472;2023-05-17T04:55:58;17.20;;;7.55;;
23714;SDS011;12036;50.858;4.472;2023-05-17T04:58:24;16.33;;;7.00;;
23714;SDS011;12036;50.858;4.472;2023-05-17T05:00:50;22.17;;;7.15;;
23714;SDS011;12036;50.858;4.472;2023-05-17T05:03:16;13.48;;;6.93;;
23714;SDS011;12036;50.858;4.472;2023-05-17T05:05:42;11.20;;;7.20;;
23714;SDS011;12036;50.858;4.472;2023-05-17T05:08:08;14.63;;;6.47;;
23714;SDS011;12036;50.858;4.472;2023-05-17T05:10:33;17.95;;;7.47;;
23714;SDS011;12036;50.858;4.472;2023-05-17T05:12:59;16.95;;;6.82;;
23714;SDS011;12036;50.858;4.472;2023-05-17T05:15:25;14.95;;;6.35;;
23714;SDS011;12036;50.858;4.472;2023-05-17T05:17:50;19.17;;;6.65;;
23714;SDS011;12036;50.858;4.472;2023-05-17T05:20:16;22.08;;;7.13;;
23714;SDS011;12036;50.858;4.472;2023-05-17T05:22:42;15.23;;;6.50;;
23714;SDS011;12036;50.858;4.472;2023-05-17T05:25:08;12.95;;;6.50;;
23714;SDS011;12036;50.858;4.472;2023-05-17T05:27:34;17.58;;;6.93;;
23714;SDS011;12036;50.858;4.472;2023-05-17T05:30:00;16.58;;;6.90;;
23714;SDS011;12036;50.858;4.472;2023-05-17T05:32:26;17.02;;;5.78;;
23714;SDS011;12036;50.858;4.472;2023-05-17T05:34:52;16.20;;;5.72;;
23714;SDS011;12036;50.858;4.472;2023-05-17T05:37:17;16.25;;;6.63;;
23714;SDS011;12036;50.858;4.472;2023-05-17T05:39:43;25.52;;;5.93;;
23714;SDS011;12036;50.858;4.472;2023-05-17T05:42:10;14.70;;;5.55;;
23714;SDS011;12036;50.858;4.472;2023-05-17T05:44:35;21.63;;;6.13;;
23714;SDS011;12036;50.858;4.472;2023-05-17T05:47:01;12.18;;;5.55;;
23714;SDS011;12036;50.858;4.472;2023-05-17T05:49:27;16.00;;;5.93;;
23714;SDS011;12036;50.858;4.472;2023-05-17T05:51:53;18.35;;;6.00;;
23714;SDS011;12036;50.858;4.472;2023-05-17T05:54:18;17.17;;;4.97;;
23714;SDS011;12036;50.858;4.472;2023-05-17T05:56:44;17.40;;;5.95;;
23714;SDS011;12036;50.858;4.472;2023-05-17T05:59:10;19.13;;;5.13;;
23714;SDS011;12036;50.858;4.472;2023-05-17T06:01:36;16.48;;;6.00;;
23714;SDS011;12036;50.858;4.472;2023-05-17T06:04:02;14.48;;;5.57;;
23714;SDS011;12036;50.858;4.472;2023-05-17T06:06:27;18.13;;;5.32;;
23714;SDS011;12036;50.858;4.472;2023-05-17T06:08:53;19.23;;;5.70;;
23714;SDS011;12036;50.858;4.472;2023-05-17T06:11:20;16.20;;;5.78;;
23714;SDS011;12036;50.858;4.472;2023-05-17T06:13:46;20.30;;;5.60;;
23714;SDS011;12036;50.858;4.472;2023-05-17T06:16:11;16.08;;;5.10;;
23714;SDS011;12036;50.858;4.472;2023-05-17T06:18:37;15.32;;;5.22;;
23714;SDS011;12036;50.858;4.472;2023-05-17T06:21:03;15.68;;;5.55;;
23714;SDS011;12036;50.858;4.472;2023-05-17T06:23:28;15.15;;;5.10;;
23714;SDS011;12036;50.858;4.472;2023-05-17T06:25:54;21.02;;;5.38;;
23714;SDS011;12036;50.858;4.472;2023-05-17T06:28:19;17.33;;;4.93;;
23714;SDS011;12036;50.858;4.472;2023-05-17T06:30:45;18.65;;;5.30;;
23714;SDS011;12036;50.858;4.472;2023-05-17T06:33:12;12.15;;;5.22;;
23714;SDS011;12036;50.858;4.472;2023-05-17T06:35:38;16.15;;;5.25;;
23714;SDS011;12036;50.858;4.472;2023-05-17T06:38:04;15.48;;;5.43;;
23714;SDS011;12036;50.858;4.472;2023-05-17T06:40:29;11.98;;;4.82;;
23714;SDS011;12036;50.858;4.472;2023-05-17T06:42:55;15.30;;;4.65;;
23714;SDS011;12036;50.858;4.472;2023-05-17T06:45:21;19.33;;;4.97;;
23714;SDS011;12036;50.858;4.472;2023-05-17T06:47:46;15.07;;;4.82;;
23714;SDS011;12036;50.858;4.472;2023-05-17T06:50:12;16.10;;;4.30;;
23714;SDS011;12036;50.858;4.472;2023-05-17T06:52:38;15.10;;;4.90;;
23714;SDS011;12036;50.858;4.472;2023-05-17T06:55:04;11.98;;;4.22;;
23714;SDS011;12036;50.858;4.472;2023-05-17T06:57:30;17.10;;;4.38;;
23714;SDS011;12036;50.858;4.472;2023-05-17T06:59:56;15.32;;;4.63;;
23714;SDS011;12036;50.858;4.472;2023-05-17T07:02:22;13.35;;;4.05;;
23714;SDS011;12036;50.858;4.472;2023-05-17T07:04:47;11.85;;;4.10;;
23714;SDS011;12036;50.858;4.472;2023-05-17T07:07:13;12.50;;;4.20;;
23714;SDS011;12036;50.858;4.472;2023-05-17T07:09:39;16.02;;;4.45;;
23714;SDS011;12036;50.858;4.472;2023-05-17T07:12:05;12.45;;;4.40;;
23714;SDS011;12036;50.858;4.472;2023-05-17T07:14:31;10.18;;;4.15;;
23714;SDS011;12036;50.858;4.472;2023-05-17T07:16:57;14.98;;;5.30;;
23714;SDS011;12036;50.858;4.472;2023-05-17T07:19:23;14.05;;;4.30;;
23714;SDS011;12036;50.858;4.472;2023-05-17T07:21:50;14.75;;;5.22;;
23714;SDS011;12036;50.858;4.472;2023-05-17T07:24:16;17.33;;;4.72;;
23714;SDS011;12036;50.858;4.472;2023-05-17T07:26:42;14.23;;;4.15;;
23714;SDS011;12036;50.858;4.472;2023-05-17T07:29:07;9.18;;;4.55;;
23714;SDS011;12036;50.858;4.472;2023-05-17T07:31:33;10.70;;;3.95;;
23714;SDS011;12036;50.858;4.472;2023-05-17T07:33:59;12.07;;;3.75;;
23714;SDS011;12036;50.858;4.472;2023-05-17T07:36:24;22.83;;;4.90;;
23714;SDS011;12036;50.858;4.472;2023-05-17T07:38:54;15.70;;;4.50;;
23714;SDS011;12036;50.858;4.472;2023-05-17T07:41:20;9.27;;;3.83;;
23714;SDS011;12036;50.858;4.472;2023-05-17T07:43:47;12.63;;;4.05;;
23714;SDS011;12036;50.858;4.472;2023-05-17T07:46:14;13.60;;;4.78;;
23714;SDS011;12036;50.858;4.472;2023-05-17T07:48:39;10.75;;;4.30;;
23714;SDS011;12036;50.858;4.472;2023-05-17T07:51:05;18.45;;;5.45;;
23714;SDS011;12036;50.858;4.472;2023-05-17T07:53:30;12.73;;;4.80;;
23714;SDS011;12036;50.858;4.472;2023-05-17T07:55:56;10.02;;;4.95;;
23714;SDS011;12036;50.858;4.472;2023-05-17T07:58:22;14.50;;;5.35;;
23714;SDS011;12036;50.858;4.472;2023-05-17T08:00:48;13.68;;;5.18;;
23714;SDS011;12036;50.858;4.472;2023-05-17T08:03:13;14.57;;;5.70;;
23714;SDS011;12036;50.858;4.472;2023-05-17T08:05:39;13.70;;;4.93;;
23714;SDS011;12036;50.858;4.472;2023-05-17T08:08:05;17.02;;;4.90;;
23714;SDS011;12036;50.858;4.472;2023-05-17T08:10:30;12.95;;;4.75;;
23714;SDS011;12036;50.858;4.472;2023-05-17T08:12:57;11.80;;;4.05;;
23714;SDS011;12036;50.858;4.472;2023-05-17T08:15:22;8.82;;;3.53;;
23714;SDS011;12036;50.858;4.472;2023-05-17T08:17:48;11.93;;;3.70;;
23714;SDS011;12036;50.858;4.472;2023-05-17T08:20:14;10.20;;;4.05;;
23714;SDS011;12036;50.858;4.472;2023-05-17T08:22:39;12.20;;;3.75;;
23714;SDS011;12036;50.858;4.472;2023-05-17T08:25:05;9.95;;;3.40;;
23714;SDS011;12036;50.858;4.472;2023-05-17T08:27:32;6.95;;;3.10;;
23714;SDS011;12036;50.858;4.472;2023-05-17T08:29:57;10.45;;;3.08;;
23714;SDS011;12036;50.858;4.472;2023-05-17T08:32:23;13.55;;;3.28;;
23714;SDS011;12036;50.858;4.472;2023-05-17T08:34:50;11.40;;;3.10;;
23714;SDS011;12036;50.858;4.472;2023-05-17T08:37:16;10.50;;;2.50;;
23714;SDS011;12036;50.858;4.472;2023-05-17T08:39:42;9.82;;;2.35;;
23714;SDS011;12036;50.858;4.472;2023-05-17T08:42:08;7.22;;;2.15;;
23714;SDS011;12036;50.858;4.472;2023-05-17T08:44:34;8.10;;;2.83;;
23714;SDS011;12036;50.858;4.472;2023-05-17T08:47:00;11.60;;;2.20;;
23714;SDS011;12036;50.858;4.472;2023-05-17T08:49:29;9.60;;;2.70;;
23714;SDS011;12036;50.858;4.472;2023-05-17T08:51:58;13.85;;;3.90;;
23714;SDS011;12036;50.858;4.472;2023-05-17T08:54:25;8.23;;;2.58;;
23714;SDS011;12036;50.858;4.472;2023-05-17T08:56:57;9.27;;;2.65;;
23714;SDS011;12036;50.858;4.472;2023-05-17T08:59:26;10.93;;;2.78;;
23714;SDS011;12036;50.858;4.472;2023-05-17T09:04:24;12.15;;;2.35;;
23714;SDS011;12036;50.858;4.472;2023-05-17T09:06:51;7.90;;;2.10;;
23714;SDS011;12036;50.858;4.472;2023-05-17T09:09:16;7.45;;;2.28;;
23714;SDS011;12036;50.858;4.472;2023-05-17T09:11:43;9.00;;;2.22;;
23714;SDS011;12036;50.858;4.472;2023-05-17T09:14:09;5.95;;;2.10;;
23714;SDS011;12036;50.858;4.472;2023-05-17T09:16:35;7.95;;;2.15;;
23714;SDS011;12036;50.858;4.472;2023-05-17T09:19:05;7.57;;;2.15;;
23714;SDS011;12036;50.858;4.472;2023-05-17T09:21:32;4.95;;;1.65;;
23714;SDS011;12036;50.858;4.472;2023-05-17T09:23:59;10.38;;;2.03;;
23714;SDS011;12036;50.858;4.472;2023-05-17T09:26:27;8.20;;;1.85;;
23714;SDS011;12036;50.858;4.472;2023-05-17T09:29:11;6.88;;;1.55;;
23714;SDS011;12036;50.858;4.472;2023-05-17T09:31:39;6.97;;;1.83;;
23714;SDS011;12036;50.858;4.472;2023-05-17T09:34:06;5.93;;;1.65;;
23714;SDS011;12036;50.858;4.472;2023-05-17T09:36:32;6.13;;;1.60;;
23714;SDS011;12036;50.858;4.472;2023-05-17T09:39:01;5.25;;;1.70;;
23714;SDS011;12036;50.858;4.472;2023-05-17T09:41:41;4.28;;;1.70;;
23714;SDS011;12036;50.858;4.472;2023-05-17T09:44:15;4.22;;;1.70;;
23714;SDS011;12036;50.858;4.472;2023-05-17T09:46:41;7.25;;;1.90;;
23714;SDS011;12036;50.858;4.472;2023-05-17T09:49:09;5.65;;;1.75;;
23714;SDS011;12036;50.858;4.472;2023-05-17T09:51:36;7.97;;;2.08;;
23714;SDS011;12036;50.858;4.472;2023-05-17T09:54:06;8.18;;;1.90;;
23714;SDS011;12036;50.858;4.472;2023-05-17T09:56:34;10.77;;;2.13;;
23714;SDS011;12036;50.858;4.472;2023-05-17T09:59:00;9.75;;;2.28;;
23714;SDS011;12036;50.858;4.472;2023-05-17T10:01:27;5.63;;;1.80;;
23714;SDS011;12036;50.858;4.472;2023-05-17T10:03:54;7.72;;;1.90;;
23714;SDS011;12036;50.858;4.472;2023-05-17T10:06:25;6.95;;;1.77;;
23714;SDS011;12036;50.858;4.472;2023-05-17T10:08:54;5.93;;;1.50;;
23714;SDS011;12036;50.858;4.472;2023-05-17T10:11:29;7.00;;;1.90;;
23714;SDS011;12036;50.858;4.472;2023-05-17T10:14:04;5.35;;;1.70;;
23714;SDS011;12036;50.858;4.472;2023-05-17T10:16:36;6.47;;;1.60;;
23714;SDS011;12036;50.858;4.472;2023-05-17T10:19:02;3.78;;;1.60;;
23714;SDS011;12036;50.858;4.472;2023-05-17T10:21:31;5.78;;;1.83;;
23714;SDS011;12036;50.858;4.472;2023-05-17T10:24:00;8.02;;;1.92;;
23714;SDS011;12036;50.858;4.472;2023-05-17T10:26:27;9.77;;;1.83;;
23714;SDS011;12036;50.858;4.472;2023-05-17T10:28:57;8.13;;;1.85;;
23714;SDS011;12036;50.858;4.472;2023-05-17T10:33:54;6.05;;;1.52;;
23714;SDS011;12036;50.858;4.472;2023-05-17T10:36:21;6.88;;;1.42;;
23714;SDS011;12036;50.858;4.472;2023-05-17T10:38:49;4.30;;;1.40;;
23714;SDS011;12036;50.858;4.472;2023-05-17T10:41:15;13.20;;;1.65;;
23714;SDS011;12036;50.858;4.472;2023-05-17T10:43:43;9.57;;;1.63;;
23714;SDS011;12036;50.858;4.472;2023-05-17T10:46:19;5.65;;;1.60;;
23714;SDS011;12036;50.858;4.472;2023-05-17T10:48:50;5.85;;;1.58;;
23714;SDS011;12036;50.858;4.472;2023-05-17T10:51:21;6.43;;;1.67;;
23714;SDS011;12036;50.858;4.472;2023-05-17T10:56:34;5.50;;;1.60;;
23714;SDS011;12036;50.858;4.472;2023-05-17T11:04:22;7.82;;;1.98;;
23714;SDS011;12036;50.858;4.472;2023-05-17T11:09:16;9.50;;;1.77;;
23714;SDS011;12036;50.858;4.472;2023-05-17T11:12:05;8.15;;;1.98;;
23714;SDS011;12036;50.858;4.472;2023-05-17T11:17:16;6.88;;;1.63;;
23714;SDS011;12036;50.858;4.472;2023-05-17T11:19:48;4.20;;;1.35;;
23714;SDS011;12036;50.858;4.472;2023-05-17T11:22:16;7.47;;;1.58;;
23714;SDS011;12036;50.858;4.472;2023-05-17T11:24:43;7.38;;;2.17;;
23714;SDS011;12036;50.858;4.472;2023-05-17T11:27:10;4.70;;;1.50;;
23714;SDS011;12036;50.858;4.472;2023-05-17T11:29:40;7.25;;;1.50;;
23714;SDS011;12036;50.858;4.472;2023-05-17T11:32:07;8.35;;;2.05;;
23714;SDS011;12036;50.858;4.472;2023-05-17T11:34:34;5.63;;;1.45;;
23714;SDS011;12036;50.858;4.472;2023-05-17T11:37:00;7.68;;;1.80;;
23714;SDS011;12036;50.858;4.472;2023-05-17T11:39:28;5.35;;;1.33;;
23714;SDS011;12036;50.858;4.472;2023-05-17T11:41:54;6.38;;;1.50;;
23714;SDS011;12036;50.858;4.472;2023-05-17T11:44:28;6.43;;;1.98;;
23714;SDS011;12036;50.858;4.472;2023-05-17T11:47:00;6.72;;;1.52;;
23714;SDS011;12036;50.858;4.472;2023-05-17T11:49:28;6.32;;;1.60;;
23714;SDS011;12036;50.858;4.472;2023-05-17T11:51:57;8.85;;;1.60;;
23714;SDS011;12036;50.858;4.472;2023-05-17T11:54:24;6.70;;;1.50;;
23714;SDS011;12036;50.858;4.472;2023-05-17T11:56:53;5.50;;;1.48;;
23714;SDS011;12036;50.858;4.472;2023-05-17T11:59:19;7.53;;;1.48;;
23714;SDS011;12036;50.858;4.472;2023-05-17T12:01:46;8.45;;;1.63;;
23714;SDS011;12036;50.858;4.472;2023-05-17T12:04:13;9.10;;;1.52;;
23714;SDS011;12036;50.858;4.472;2023-05-17T12:06:49;6.28;;;1.95;;
23714;SDS011;12036;50.858;4.472;2023-05-17T12:09:15;6.80;;;1.63;;
23714;SDS011;12036;50.858;4.472;2023-05-17T12:11:42;5.25;;;1.20;;
23714;SDS011;12036;50.858;4.472;2023-05-17T12:14:08;6.72;;;1.30;;
23714;SDS011;12036;50.858;4.472;2023-05-17T12:16:37;9.65;;;1.40;;
23714;SDS011;12036;50.858;4.472;2023-05-17T12:19:15;7.57;;;1.45;;
23714;SDS011;12036;50.858;4.472;2023-05-17T12:21:45;5.53;;;1.38;;
23714;SDS011;12036;50.858;4.472;2023-05-17T12:24:11;5.60;;;1.83;;
23714;SDS011;12036;50.858;4.472;2023-05-17T12:26:46;8.07;;;1.70;;
23714;SDS011;12036;50.858;4.472;2023-05-17T12:29:12;6.05;;;1.27;;
23714;SDS011;12036;50.858;4.472;2023-05-17T12:31:44;5.87;;;1.43;;
23714;SDS011;12036;50.858;4.472;2023-05-17T12:34:13;7.07;;;1.38;;
23714;SDS011;12036;50.858;4.472;2023-05-17T12:36:41;6.05;;;1.33;;
23714;SDS011;12036;50.858;4.472;2023-05-17T12:39:08;11.48;;;1.92;;
23714;SDS011;12036;50.858;4.472;2023-05-17T12:41:35;5.38;;;1.50;;
23714;SDS011;12036;50.858;4.472;2023-05-17T12:44:03;4.22;;;1.42;;
23714;SDS011;12036;50.858;4.472;2023-05-17T12:46:29;5.93;;;1.50;;
23714;SDS011;12036;50.858;4.472;2023-05-17T12:48:59;6.15;;;1.33;;
23714;SDS011;12036;50.858;4.472;2023-05-17T12:51:34;5.43;;;1.45;;
23714;SDS011;12036;50.858;4.472;2023-05-17T12:54:06;4.63;;;1.33;;
23714;SDS011;12036;50.858;4.472;2023-05-17T12:56:31;6.03;;;1.27;;
23714;SDS011;12036;50.858;4.472;2023-05-17T12:59:05;4.88;;;1.10;;
23714;SDS011;12036;50.858;4.472;2023-05-17T13:01:38;5.88;;;1.15;;
23714;SDS011;12036;50.858;4.472;2023-05-17T13:04:08;6.93;;;1.40;;
23714;SDS011;12036;50.858;4.472;2023-05-17T13:06:44;2.80;;;1.20;;
23714;SDS011;12036;50.858;4.472;2023-05-17T13:09:11;5.38;;;1.20;;
23714;SDS011;12036;50.858;4.472;2023-05-17T13:11:37;7.18;;;1.17;;
23714;SDS011;12036;50.858;4.472;2023-05-17T13:14:05;4.97;;;1.30;;
23714;SDS011;12036;50.858;4.472;2023-05-17T13:16:32;4.03;;;1.40;;
23714;SDS011;12036;50.858;4.472;2023-05-17T13:19:01;8.10;;;1.90;;
23714;SDS011;12036;50.858;4.472;2023-05-17T13:21:35;4.50;;;1.23;;
23714;SDS011;12036;50.858;4.472;2023-05-17T13:24:01;2.88;;;1.27;;
23714;SDS011;12036;50.858;4.472;2023-05-17T13:26:26;9.05;;;1.33;;
23714;SDS011;12036;50.858;4.472;2023-05-17T13:28:52;4.70;;;1.30;;
23714;SDS011;12036;50.858;4.472;2023-05-17T13:31:17;7.75;;;1.70;;
23714;SDS011;12036;50.858;4.472;2023-05-17T13:33:43;5.97;;;1.52;;
23714;SDS011;12036;50.858;4.472;2023-05-17T13:36:09;7.55;;;1.45;;
23714;SDS011;12036;50.858;4.472;2023-05-17T13:38:36;5.40;;;1.40;;
23714;SDS011;12036;50.858;4.472;2023-05-17T13:41:01;5.45;;;1.38;;
23714;SDS011;12036;50.858;4.472;2023-05-17T13:43:27;4.20;;;1.38;;
23714;SDS011;12036;50.858;4.472;2023-05-17T13:45:53;5.00;;;1.38;;
23714;SDS011;12036;50.858;4.472;2023-05-17T13:48:22;5.00;;;1.38;;
23714;SDS011;12036;50.858;4.472;2023-05-17T13:50:48;4.65;;;1.40;;
23714;SDS011;12036;50.858;4.472;2023-05-17T13:53:14;9.68;;;1.30;;
23714;SDS011;12036;50.858;4.472;2023-05-17T13:55:40;8.98;;;1.42;;
23714;SDS011;12036;50.858;4.472;2023-05-17T13:58:06;3.65;;;1.45;;
23714;SDS011;12036;50.858;4.472;2023-05-17T14:00:31;5.90;;;1.35;;
23714;SDS011;12036;50.858;4.472;2023-05-17T14:02:57;6.80;;;1.33;;
23714;SDS011;12036;50.858;4.472;2023-05-17T14:05:23;3.40;;;1.25;;
23714;SDS011;12036;50.858;4.472;2023-05-17T14:07:49;3.45;;;1.13;;
23714;SDS011;12036;50.858;4.472;2023-05-17T14:10:15;4.90;;;1.52;;
23714;SDS011;12036;50.858;4.472;2023-05-17T14:12:41;5.00;;;1.17;;
23714;SDS011;12036;50.858;4.472;2023-05-17T14:15:07;7.25;;;1.63;;
23714;SDS011;12036;50.858;4.472;2023-05-17T14:17:34;10.82;;;1.40;;
23714;SDS011;12036;50.858;4.472;2023-05-17T14:20:00;5.30;;;1.50;;
23714;SDS011;12036;50.858;4.472;2023-05-17T14:22:26;6.15;;;1.45;;
23714;SDS011;12036;50.858;4.472;2023-05-17T14:24:52;5.28;;;1.42;;
23714;SDS011;12036;50.858;4.472;2023-05-17T14:27:17;6.05;;;1.20;;
23714;SDS011;12036;50.858;4.472;2023-05-17T14:29:43;5.00;;;1.33;;
23714;SDS011;12036;50.858;4.472;2023-05-17T14:32:09;11.32;;;1.80;;
23714;SDS011;12036;50.858;4.472;2023-05-17T14:34:36;9.32;;;1.70;;
23714;SDS011;12036;50.858;4.472;2023-05-17T14:37:02;6.22;;;1.50;;
23714;SDS011;12036;50.858;4.472;2023-05-17T14:39:28;6.82;;;1.30;;
23714;SDS011;12036;50.858;4.472;2023-05-17T14:41:54;9.82;;;1.60;;
23714;SDS011;12036;50.858;4.472;2023-05-17T14:44:20;4.28;;;1.23;;
23714;SDS011;12036;50.858;4.472;2023-05-17T14:46:45;8.85;;;1.30;;
23714;SDS011;12036;50.858;4.472;2023-05-17T14:49:11;4.35;;;1.40;;
23714;SDS011;12036;50.858;4.472;2023-05-17T14:51:37;8.10;;;1.17;;
23714;SDS011;12036;50.858;4.472;2023-05-17T14:54:03;3.75;;;1.15;;
23714;SDS011;12036;50.858;4.472;2023-05-17T14:56:29;4.80;;;1.38;;
23714;SDS011;12036;50.858;4.472;2023-05-17T14:58:56;3.08;;;1.27;;
23714;SDS011;12036;50.858;4.472;2023-05-17T15:01:21;6.78;;;1.55;;
23714;SDS011;12036;50.858;4.472;2023-05-17T15:03:47;5.07;;;1.63;;
23714;SDS011;12036;50.858;4.472;2023-05-17T15:06:13;6.38;;;1.27;;